Sevier River near Sigurd




Date Battery Voltage (V) Panel Temperature (degC) River Stage (ft) River Discharge (cfs)
02/01/2017 13.15 6.35 1.65 83
02/02/2017 12.99 4.76 1.90 113
02/03/2017 13.08 6.73 1.95 121
02/04/2017 13.23 10.48 1.98 126
02/05/2017 13.27 6.85 2.02 132
02/06/2017 12.98 8.85 2.35 197
02/07/2017 12.87 10.57 2.73 272
02/08/2017 13.09 13.19 2.47 215
02/09/2017 13.17 15.57 2.31 182
02/10/2017 12.92 14.95 2.37 193
02/11/2017 12.87 7.10 2.42 204
02/12/2017 13.28 6.79 2.46 212
02/13/2017 13.39 4.89 2.42 204
02/14/2017 13.37 5.11 2.38 196
02/15/2017 13.37 6.46 2.37 192
02/16/2017 13.34 8.90 2.35 189
02/17/2017 13.01 8.07 2.33 186
02/18/2017 12.83 9.66 2.34 187
02/19/2017 12.96 8.52 2.33 186
02/20/2017 13.25 10.13 2.33 186
02/21/2017 13.35 12.95 2.33 185
02/22/2017 13.28 9.40 2.33 185
02/23/2017 13.33 0.16 2.34 187
02/24/2017 13.16 1.42 2.35 190
02/25/2017 13.47 -3.58 2.35 189
02/26/2017 13.37 1.63 2.33 185
02/27/2017 13.20 2.79 2.36 192
02/28/2017 13.46 1.72 2.37 193
Average 182
Maximum 272
Minimum 83
Total Volume (AF) 10,078